Cheney, Washington
Current Conditions -  °F | °C
As of 6:28 PM on Thursday 20 Nov 2014 (Local Time) from KSKA Reporting Station
Haze Haze  
Wind Chill: 32°   Ceiling: 400
Heat Index: 32°   Visibility: 6mi
Dew Point: 28°   Wind: 2mph
Humidity: 87%   Direction: 360°N
Pressure: 30"   Gusts: NA
Location:  47.49°N, 117.57°W
Report Text: KSKA 210228Z AUTO 36002KT 6SM BR OVC004 00/M02 A3000 RMK AO2 RVRNO $
Loading
Personal Weather Stations






























Interactive Weather Map New forecast layout! Learn more

10-Day Weather Forecast

Advertisements
Track Severe Weather on mobile